Time;durP1;ratioP1;P1;durP2;ratioP2;P2;SDS_P1;SDS_P2;PMS_P1;PMS_P2;Temp;Humidity;BMP_temperature;BMP_pressure;BME280_temperature;BME280_humidity;BME280_pressure;Samples;Min_cycle;Max_cycle;Signal;HPM_P1;HPM_P2
2022/10/14 00:01:25;;;;;;;78.65;17.95;;;;;;;11.86;100.00;101524.56;2604834;36;20830;-58
2022/10/14 00:03:55;;;;;;;47.13;17.05;;;;;;;11.94;100.00;101515.88;2608063;36;20045;-58
2022/10/14 00:06:24;;;;;;;;;;;;;;;12.03;100.00;101520.50;2606413;36;20045;-58
2022/10/14 00:08:55;;;;;;;54.10;17.05;;;;;;;11.99;100.00;101518.19;2608315;36;19946;-59
2022/10/14 00:11:26;;;;;;;48.60;16.63;;;;;;;11.90;100.00;101515.25;2603665;36;20065;-58
2022/10/14 00:13:56;;;;;;;65.13;17.50;;;;;;;11.75;100.00;101511.16;2604871;36;20027;-59
2022/10/14 00:16:27;;;;;;;56.53;17.00;;;;;;;11.77;100.00;101509.16;2605778;36;20049;-58
2022/10/14 00:18:56;;;;;;;56.53;16.63;;;;;;;11.79;100.00;101499.09;2603956;36;20030;-59
2022/10/14 00:21:24;;;;;;;49.53;15.95;;;;;;;11.84;100.00;101494.19;2606751;36;20073;-58
2022/10/14 00:23:56;;;;;;;53.22;16.77;;;;;;;11.94;100.00;101491.63;2604917;36;20026;-59
2022/10/14 00:26:27;;;;;;;53.55;17.77;;;;;;;11.90;100.00;101482.88;2602463;36;20034;-58
2022/10/14 00:28:57;;;;;;;55.53;16.52;;;;;;;11.95;100.00;101489.75;2605343;36;20023;-59
2022/10/14 00:31:25;;;;;;;52.75;17.25;;;;;;;11.85;100.00;101487.81;2604823;31;20034;-58
2022/10/14 00:33:54;;;;;;;98.00;20.08;;;;;;;11.97;100.00;101488.66;2607166;36;20643;-58
2022/10/14 00:36:24;;;;;;;78.00;16.80;;;;;;;11.87;100.00;101487.69;2607395;36;20057;-59
2022/10/14 00:38:56;;;;;;;89.05;18.75;;;;;;;11.89;100.00;101491.09;2604526;36;20046;-58
2022/10/14 00:41:27;;;;;;;59.10;18.83;;;;;;;11.81;100.00;101494.44;2606783;31;20034;-59
2022/10/14 00:44:00;;;;;;;78.85;19.33;;;;;;;11.92;100.00;101497.09;2603012;31;20031;-59
2022/10/14 00:46:30;;;;;;;68.15;17.30;;;;;;;11.86;100.00;101486.81;2605899;36;20038;-58
2022/10/14 00:49:00;;;;;;;65.45;17.77;;;;;;;11.80;100.00;101490.03;2604757;36;20030;-58
2022/10/14 00:51:29;;;;;;;61.55;17.95;;;;;;;11.78;100.00;101489.31;2609833;36;20038;-58
2022/10/14 00:54:03;;;;;;;82.22;18.80;;;;;;;11.80;100.00;101487.34;2611977;36;20057;-58
2022/10/14 00:56:32;;;;;;;120.20;20.15;;;;;;;11.71;100.00;101480.03;2606166;36;20872;-58
2022/10/14 00:59:01;;;;;;;;;;;;;;;11.77;100.00;101487.59;2611593;31;20035;-58
2022/10/14 01:01:29;;;;;;;60.33;19.33;;;;;;;11.77;100.00;101479.50;2608282;36;19946;-58
2022/10/14 01:03:58;;;;;;;52.25;18.02;;;;;;;11.75;100.00;101489.56;2608406;31;20049;-59
2022/10/14 01:06:41;;;;;;;82.18;19.90;;;;;;;11.57;100.00;101476.63;2607456;36;21288;-59
2022/10/14 01:09:19;;;;;;;85.05;19.27;;;;;;;11.58;100.00;101478.31;2608911;36;20428;-58
2022/10/14 01:12:00;;;;;;;48.67;18.55;;;;;;;11.60;100.00;101477.34;2609348;36;20420;-58
2022/10/14 01:14:42;;;;;;;90.97;19.65;;;;;;;11.60;100.00;101471.97;2608887;36;20045;-58
2022/10/14 01:17:19;;;;;;;93.68;21.55;;;;;;;11.63;100.00;101469.88;2609183;36;20041;-59
2022/10/14 01:20:09;;;;;;;54.95;19.15;;;;;;;11.72;100.00;101466.41;2610272;36;20041;-58
2022/10/14 01:22:42;;;;;;;81.82;20.40;;;;;;;11.64;100.00;101457.25;2608799;36;20040;-58
2022/10/14 01:25:21;;;;;;;59.17;19.65;;;;;;;11.60;100.00;101453.09;2609910;36;20035;-58
2022/10/14 01:28:00;;;;;;;67.60;19.88;;;;;;;11.50;100.00;101453.88;2607764;36;20038;-58
2022/10/14 01:30:34;;;;;;;58.45;19.13;;;;;;;11.53;100.00;101442.81;2607416;31;20649;-58
2022/10/14 01:33:13;;;;;;;55.67;19.95;;;;;;;11.54;100.00;101454.44;2606438;31;20601;-58
2022/10/14 01:36:00;;;;;;;65.68;20.15;;;;;;;11.63;100.00;101447.44;2607685;36;20038;-59
2022/10/14 01:38:33;;;;;;;54.30;21.15;;;;;;;11.59;100.00;101438.75;2607603;31;20642;-58
2022/10/14 01:41:08;;;;;;;47.95;18.60;;;;;;;11.60;100.00;101443.19;2607077;36;20166;-58
2022/10/14 01:43:38;;;;;;;55.55;20.63;;;;;;;11.67;100.00;101438.97;2606967;36;20058;-59
2022/10/14 01:46:12;;;;;;;46.70;19.25;;;;;;;11.58;100.00;101435.19;2607272;36;20069;-58
2022/10/14 01:48:45;;;;;;;42.45;19.05;;;;;;;11.64;100.00;101441.06;2607990;36;20706;-58
2022/10/14 01:51:17;;;;;;;72.95;21.13;;;;;;;11.64;100.00;101441.91;2602393;36;20057;-59
2022/10/14 01:53:52;;;;;;;58.40;21.05;;;;;;;11.68;100.00;101439.84;2605609;31;20057;-58
2022/10/14 01:56:21;;;;;;;55.63;21.02;;;;;;;11.61;100.00;101441.31;2609046;36;20077;-59
2022/10/14 01:58:51;;;;;;;53.38;20.50;;;;;;;11.63;100.00;101436.66;2604272;36;20034;-58
2022/10/14 02:01:21;;;;;;;69.35;20.92;;;;;;;11.44;100.00;101435.50;2609534;36;20038;-59
2022/10/14 02:03:50;;;;;;;53.80;19.95;;;;;;;11.53;100.00;101442.81;2605164;36;20038;-59
2022/10/14 02:06:24;;;;;;;69.65;23.35;;;;;;;11.55;100.00;101435.44;2603021;36;20536;-58
2022/10/14 02:09:16;;;;;;;44.85;19.95;;;;;;;11.53;100.00;101442.81;2608131;31;20057;-60
2022/10/14 02:11:55;;;;;;;55.92;19.80;;;;;;;11.57;100.00;101427.22;2608179;36;20042;-58
2022/10/14 02:14:34;;;;;;;41.05;17.17;;;;;;;11.64;100.00;101427.59;2605255;36;20042;-59
2022/10/14 02:17:11;;;;;;;55.60;21.38;;;;;;;11.69;100.00;101430.72;2606385;36;20030;-58
2022/10/14 02:19:46;;;;;;;45.75;18.73;;;;;;;11.62;100.00;101416.09;2609374;36;20027;-58
2022/10/14 02:22:26;;;;;;;43.60;19.42;;;;;;;11.75;100.00;101412.22;2608086;36;20135;-59
2022/10/14 02:24:59;;;;;;;46.80;19.05;;;;;;;11.74;100.00;101409.66;2610323;36;20428;-59
2022/10/14 02:27:29;;;;;;;38.88;17.55;;;;;;;11.70;100.00;101416.28;2607012;31;20042;-58
2022/10/14 02:29:59;;;;;;;41.20;18.38;;;;;;;11.73;100.00;101421.41;2608401;36;20069;-59
2022/10/14 02:32:32;;;;;;;38.22;18.80;;;;;;;11.68;100.00;101423.66;2607631;36;20030;-59
2022/10/14 02:35:02;;;;;;;41.70;18.73;;;;;;;11.70;100.00;101410.88;2608728;36;20053;-59
2022/10/14 02:37:31;;;;;;;35.55;17.92;;;;;;;11.73;100.00;101414.19;2608912;36;20035;-58
2022/10/14 02:40:06;;;;;;;38.13;18.10;;;;;;;11.63;100.00;101420.47;2608752;36;20443;-58
2022/10/14 02:42:35;;;;;;;37.10;17.73;;;;;;;11.62;100.00;101418.78;2609202;36;20037;-59
2022/10/14 02:45:03;;;;;;;36.67;17.95;;;;;;;11.56;100.00;101421.00;2608913;36;20070;-59
2022/10/14 02:47:34;;;;;;;40.72;17.65;;;;;;;11.63;100.00;101421.34;2611389;36;20547;-58
2022/10/14 02:50:03;;;;;;;38.58;17.52;;;;;;;11.66;100.00;101426.47;2599306;36;20065;-59
2022/10/14 02:52:31;;;;;;;36.65;16.92;;;;;;;11.63;100.00;101425.88;2609831;36;20030;-59
2022/10/14 02:54:59;;;;;;;35.38;17.42;;;;;;;11.47;100.00;101424.47;2608151;36;20022;-58
2022/10/14 02:57:28;;;;;;;38.60;18.25;;;;;;;11.55;100.00;101419.28;2610345;31;20034;-59
2022/10/14 02:59:56;;;;;;;39.05;16.52;;;;;;;11.47;100.00;101421.78;2609674;36;20055;-58
2022/10/14 03:02:24;;;;;;;44.10;17.77;;;;;;;11.45;100.00;101417.50;2608829;36;20038;-59
2022/10/14 03:04:56;;;;;;;38.78;18.20;;;;;;;11.61;100.00;101409.81;2604237;36;20042;-59
2022/10/14 03:07:25;;;;;;;42.65;18.40;;;;;;;11.62;100.00;101398.06;2610956;31;20086;-59
2022/10/14 03:09:53;;;;;;;42.80;18.08;;;;;;;11.82;100.00;101387.41;2606728;36;20030;-58
2022/10/14 03:12:21;;;;;;;35.72;15.82;;;;;;;11.79;100.00;101393.06;2609968;36;20035;-58
2022/10/14 03:14:50;;;;;;;38.40;16.73;;;;;;;11.64;100.00;101395.22;2611424;36;20023;-58
2022/10/14 03:17:18;;;;;;;37.30;16.60;;;;;;;11.71;100.00;101393.72;2606606;36;20552;-58
2022/10/14 03:19:46;;;;;;;39.15;15.05;;;;;;;11.64;100.00;101384.44;2609005;31;20038;-58
2022/10/14 03:22:17;;;;;;;40.50;16.77;;;;;;;11.83;100.00;101379.19;2611839;36;20046;-58
2022/10/14 03:24:45;;;;;;;39.53;16.00;;;;;;;11.78;100.00;101369.78;2611286;36;20030;-58
2022/10/14 03:27:14;;;;;;;37.67;15.75;;;;;;;11.72;100.00;101355.84;2609994;36;20038;-58
2022/10/14 03:29:42;;;;;;;33.80;15.07;;;;;;;11.79;100.00;101347.22;2610244;36;20046;-58
2022/10/14 03:32:10;;;;;;;35.50;15.63;;;;;;;11.65;100.00;101348.41;2611208;36;20034;-59
2022/10/14 03:34:39;;;;;;;32.33;13.13;;;;;;;11.75;100.00;101352.88;2609046;36;20030;-59
2022/10/14 03:37:07;;;;;;;32.85;14.35;;;;;;;11.79;100.00;101364.25;2610385;31;20026;-59
2022/10/14 03:39:38;;;;;;;34.27;12.10;;;;;;;11.62;100.00;101376.50;2609713;36;20038;-59
2022/10/14 03:42:06;;;;;;;36.13;13.55;;;;;;;11.55;100.00;101378.84;2605630;36;20060;-59
2022/10/14 03:44:35;;;;;;;30.38;12.07;;;;;;;11.57;100.00;101376.88;2609331;36;20061;-59
2022/10/14 03:47:03;;;;;;;29.10;10.88;;;;;;;11.50;100.00;101373.00;2610498;36;20045;-59
2022/10/14 03:49:31;;;;;;;36.03;12.57;;;;;;;11.51;100.00;101372.03;2610518;36;20022;-59
2022/10/14 03:52:00;;;;;;;31.98;11.30;;;;;;;11.66;100.00;101368.97;2610402;31;20299;-59
2022/10/14 03:54:28;;;;;;;29.80;11.38;;;;;;;11.76;100.00;101356.41;2608422;36;20085;-59
2022/10/14 03:56:59;;;;;;;28.17;10.40;;;;;;;11.91;100.00;101357.81;2605925;36;20035;-59
2022/10/14 03:59:27;;;;;;;31.80;10.18;;;;;;;11.92;100.00;101356.84;2606358;36;20041;-59
2022/10/14 04:01:55;;;;;;;25.83;9.63;;;;;;;11.84;100.00;101353.09;2608618;36;20555;-59
2022/10/14 04:04:24;;;;;;;30.00;10.45;;;;;;;11.91;100.00;101354.25;2609149;36;20455;-59
2022/10/14 04:06:52;;;;;;;26.45;8.27;;;;;;;11.83;100.00;101346.81;2609356;31;20035;-59
2022/10/14 04:09:21;;;;;;;23.05;9.30;;;;;;;11.84;100.00;101347.69;2608738;36;20034;-58
2022/10/14 04:11:49;;;;;;;31.63;9.77;;;;;;;11.86;100.00;101343.84;2590343;36;20424;-59
2022/10/14 04:14:20;;;;;;;25.50;8.80;;;;;;;11.88;100.00;101339.19;2608883;36;20307;-58
2022/10/14 04:16:48;;;;;;;24.77;8.90;;;;;;;11.85;100.00;101342.16;2609014;36;20069;-58
2022/10/14 04:19:17;;;;;;;27.20;9.27;;;;;;;11.89;100.00;101332.78;2608936;36;20368;-59
2022/10/14 04:21:46;;;;;;;24.83;9.45;;;;;;;12.11;100.00;101336.38;2606690;36;20042;-58
2022/10/14 04:24:14;;;;;;;25.75;9.45;;;;;;;12.01;100.00;101339.00;2611241;36;20030;-59
2022/10/14 04:26:43;;;;;;;29.20;9.95;;;;;;;12.08;100.00;101332.09;2608382;36;20038;-59
2022/10/14 04:29:11;;;;;;;25.55;8.38;;;;;;;12.00;100.00;101331.03;2609173;36;20038;-58
2022/10/14 04:31:42;;;;;;;22.35;9.27;;;;;;;12.04;100.00;101321.69;2611192;36;20069;-59
2022/10/14 04:34:11;;;;;;;27.48;9.27;;;;;;;11.98;100.00;101323.09;2610631;36;20045;-59
2022/10/14 04:36:40;;;;;;;27.40;8.63;;;;;;;12.02;100.00;101323.69;2608529;36;20038;-59
2022/10/14 04:39:08;;;;;;;23.65;8.30;;;;;;;11.92;100.00;101321.78;2610715;36;20124;-59
2022/10/14 04:41:37;;;;;;;24.02;8.45;;;;;;;12.08;100.00;101309.66;2609995;36;20566;-59
2022/10/14 04:44:05;;;;;;;22.88;8.82;;;;;;;12.07;100.00;101300.72;2610342;36;20045;-59
2022/10/14 04:46:34;;;;;;;24.57;9.17;;;;;;;12.15;100.00;101308.13;2612572;36;20035;-58
2022/10/14 04:49:05;;;;;;;23.08;8.38;;;;;;;12.12;100.00;101305.69;2607621;36;20311;-58
2022/10/14 04:51:33;;;;;;;28.27;10.32;;;;;;;12.08;100.00;101306.94;2611564;36;20524;-58
2022/10/14 04:54:01;;;;;;;26.10;9.20;;;;;;;11.96;100.00;101305.34;2608956;31;20543;-58
2022/10/14 04:56:30;;;;;;;27.33;9.25;;;;;;;11.96;100.00;101292.69;2614635;36;20058;-58
2022/10/14 04:58:58;;;;;;;29.55;9.05;;;;;;;12.07;100.00;101295.31;2615076;36;20041;-59
2022/10/14 05:01:26;;;;;;;31.13;10.00;;;;;;;12.09;100.00;101287.94;2616036;36;20049;-59
2022/10/14 05:03:55;;;;;;;23.85;8.75;;;;;;;12.11;100.00;101281.56;2614944;36;20038;-58
2022/10/14 05:06:26;;;;;;;26.80;9.43;;;;;;;12.04;100.00;101281.22;2616073;36;20034;-59
2022/10/14 05:08:54;;;;;;;27.83;9.57;;;;;;;11.95;100.00;101268.56;2614747;36;20038;-59
2022/10/14 05:11:23;;;;;;;28.33;9.88;;;;;;;11.99;100.00;101264.59;2615533;36;20061;-59
2022/10/14 05:13:51;;;;;;;28.73;9.97;;;;;;;11.87;100.00;101267.34;2616601;36;20515;-59
2022/10/14 05:16:19;;;;;;;31.40;10.63;;;;;;;11.90;100.00;101277.88;2615815;36;20026;-59
2022/10/14 05:18:47;;;;;;;33.03;11.57;;;;;;;11.91;100.00;101262.53;2615786;36;20030;-59
2022/10/14 05:21:16;;;;;;;30.80;10.82;;;;;;;11.88;100.00;101262.81;2614546;36;20034;-59
2022/10/14 05:23:47;;;;;;;32.22;11.32;;;;;;;12.01;100.00;101268.00;2615867;36;20022;-59
2022/10/14 05:26:15;;;;;;;30.70;10.88;;;;;;;12.07;100.00;101253.97;2615849;36;20027;-59
2022/10/14 05:28:43;;;;;;;36.15;11.32;;;;;;;12.13;100.00;101255.28;2614693;36;20042;-59
2022/10/14 05:31:12;;;;;;;30.50;10.88;;;;;;;12.07;100.00;101252.16;2613678;31;20031;-59
2022/10/14 05:33:40;;;;;;;33.85;11.45;;;;;;;12.08;100.00;101250.28;2615877;36;20057;-59
2022/10/14 05:36:09;;;;;;;30.50;10.40;;;;;;;12.05;100.00;101245.19;2615359;31;20038;-58
2022/10/14 05:38:41;;;;;;;32.00;10.48;;;;;;;12.03;100.00;101233.69;2615593;54;20057;-58
2022/10/14 05:41:12;;;;;;;37.15;11.50;;;;;;;12.14;100.00;101230.00;2616338;36;20026;-58
2022/10/14 05:43:40;;;;;;;31.67;11.77;;;;;;;12.14;100.00;101232.72;2616723;36;20526;-58
2022/10/14 05:46:08;;;;;;;35.13;12.07;;;;;;;12.03;100.00;101214.78;2615630;31;20034;-59
2022/10/14 05:48:36;;;;;;;32.63;12.52;;;;;;;12.12;100.00;101222.06;2616269;31;20133;-58
2022/10/14 05:51:05;;;;;;;34.05;12.30;;;;;;;12.06;100.00;101225.31;2615581;36;20034;-59
2022/10/14 05:53:33;;;;;;;33.10;11.60;;;;;;;12.11;100.00;101222.19;2616182;36;20031;-59
2022/10/14 05:56:05;;;;;;;40.27;12.77;;;;;;;12.15;100.00;101213.69;2615374;36;20153;-59
2022/10/14 05:58:36;;;;;;;34.88;12.57;;;;;;;12.15;100.00;101220.94;2615049;36;20042;-58
2022/10/14 06:01:07;;;;;;;31.85;12.57;;;;;;;12.08;100.00;101215.22;2614376;36;20053;-59
2022/10/14 06:03:35;;;;;;;34.55;13.23;;;;;;;12.17;100.00;101209.00;2615855;36;20034;-59
2022/10/14 06:06:04;;;;;;;33.73;13.30;;;;;;;12.26;100.00;101218.97;2615830;36;20030;-57
2022/10/14 06:08:32;;;;;;;37.33;13.00;;;;;;;12.32;100.00;101211.31;2615112;36;20027;-58
2022/10/14 06:11:05;;;;;;;36.85;13.85;;;;;;;12.26;100.00;101212.69;2614732;36;20061;-59
2022/10/14 06:13:36;;;;;;;38.85;13.45;;;;;;;12.26;100.00;101212.69;2615312;36;20038;-59
2022/10/14 06:16:05;;;;;;;35.25;13.07;;;;;;;12.42;100.00;101204.91;2614323;36;20038;-58
2022/10/14 06:18:34;;;;;;;38.83;12.07;;;;;;;12.39;100.00;101207.06;2614363;36;20403;-59
2022/10/14 06:21:02;;;;;;;36.67;14.48;;;;;;;12.40;100.00;101203.38;2615268;36;20057;-59
2022/10/14 06:23:31;;;;;;;37.10;13.95;;;;;;;12.41;100.00;101210.47;2615253;36;20034;-59
2022/10/14 06:25:59;;;;;;;39.78;14.90;;;;;;;12.30;100.00;101202.50;2615398;36;20054;-59
2022/10/14 06:28:27;;;;;;;40.63;14.43;;;;;;;12.36;100.00;101199.25;2616108;36;20571;-59
2022/10/14 06:30:58;;;;;;;43.72;16.00;;;;;;;12.46;100.00;101199.28;2614852;36;20031;-58
2022/10/14 06:33:27;;;;;;;39.75;14.27;;;;;;;12.54;100.00;101188.59;2613539;36;20030;-59
2022/10/14 06:35:55;;;;;;;40.28;15.57;;;;;;;12.54;100.00;101194.00;2614975;36;20428;-60
2022/10/14 06:38:23;;;;;;;42.72;15.07;;;;;;;12.52;100.00;101190.59;2614319;36;20030;-58
2022/10/14 06:40:53;;;;;;;40.93;15.70;;;;;;;12.58;100.00;101190.03;2615155;36;20041;-59
2022/10/14 06:43:21;;;;;;;;;;;;;;;12.77;100.00;101194.59;2614929;36;20038;-58
2022/10/14 06:45:51;;;;;;;42.60;14.40;;;;;;;12.80;100.00;101194.28;2610883;36;19951;-58
2022/10/14 06:48:22;;;;;;;36.78;14.02;;;;;;;12.95;100.00;101183.91;2594992;31;20075;-58
2022/10/14 06:50:50;;;;;;;41.65;14.02;;;;;;;12.93;100.00;101186.75;2611437;36;20044;-59
2022/10/14 06:53:19;;;;;;;41.90;14.55;;;;;;;13.00;100.00;101184.34;2614481;36;20037;-58
2022/10/14 06:55:47;;;;;;;46.75;15.77;;;;;;;13.16;100.00;101175.63;2613789;36;20034;-58
2022/10/14 06:58:15;;;;;;;41.50;14.93;;;;;;;13.08;100.00;101170.09;2615359;36;20034;-54
2022/10/14 07:00:43;;;;;;;38.55;13.98;;;;;;;13.03;100.00;101185.88;2614223;36;20061;-55
2022/10/14 07:03:12;;;;;;;40.28;15.00;;;;;;;13.10;100.00;101170.78;2614653;36;20035;-57
2022/10/14 07:05:42;;;;;;;37.05;14.57;;;;;;;13.05;100.00;101173.09;2611238;36;20041;-56
2022/10/14 07:08:11;;;;;;;34.75;13.93;;;;;;;13.15;100.00;101184.75;2611138;36;20062;-58
2022/10/14 07:10:39;;;;;;;37.70;13.73;;;;;;;13.24;100.00;101173.06;2612080;36;20031;-59
2022/10/14 07:13:07;;;;;;;34.00;14.50;;;;;;;13.23;100.00;101165.94;2613766;36;20042;-59
2022/10/14 07:15:36;;;;;;;30.90;12.80;;;;;;;13.21;100.00;101170.66;2614403;31;20038;-58
2022/10/14 07:18:05;;;;;;;38.60;14.10;;;;;;;13.32;100.00;101165.06;2614678;36;20034;-57
2022/10/14 07:20:34;;;;;;;32.83;13.10;;;;;;;13.21;100.00;101164.41;2614255;36;20033;-58
2022/10/14 07:23:05;;;;;;;30.08;12.57;;;;;;;13.26;100.00;101162.94;2616091;36;20023;-58
2022/10/14 07:25:34;;;;;;;26.17;12.15;;;;;;;13.42;100.00;101165.06;2614733;36;20061;-59
2022/10/14 07:28:02;;;;;;;27.75;12.32;;;;;;;13.52;100.00;101156.09;2614929;36;20041;-59
2022/10/14 07:30:31;;;;;;;28.17;12.07;;;;;;;13.64;100.00;101144.91;2615006;36;20075;-59
2022/10/14 07:33:01;;;;;;;30.63;13.00;;;;;;;13.63;100.00;101159.44;2615068;36;20785;-59
2022/10/14 07:35:29;;;;;;;27.25;12.15;;;;;;;13.73;100.00;101151.28;2612765;36;20077;-59
2022/10/14 07:38:00;;;;;;;30.02;12.95;;;;;;;13.48;100.00;101150.09;2614554;36;20035;-59
2022/10/14 07:40:31;;;;;;;27.45;13.60;;;;;;;13.66;100.00;101145.63;2614912;36;20124;-59
2022/10/14 07:42:59;;;;;;;27.77;11.60;;;;;;;13.91;100.00;101151.31;2615517;36;20057;-58
2022/10/14 07:45:33;;;;;;;26.58;11.82;;;;;;;14.02;100.00;101153.81;2614272;36;20034;-58
2022/10/14 07:48:02;;;;;;;28.23;11.60;;;;;;;13.87;100.00;101149.94;2614036;36;20023;-58
2022/10/14 07:50:31;;;;;;;25.67;11.50;;;;;;;13.87;100.00;101149.94;2614105;36;20022;-58
2022/10/14 07:52:59;;;;;;;25.80;12.38;;;;;;;13.92;100.00;101152.19;2611980;36;20562;-58
2022/10/14 07:55:27;;;;;;;22.85;10.57;;;;;;;13.96;100.00;101143.63;2606692;36;20018;-59
2022/10/14 07:57:58;;;;;;;23.98;10.57;;;;;;;13.97;100.00;101145.31;2611267;36;20034;-58
2022/10/14 08:00:29;;;;;;;27.40;11.45;;;;;;;14.07;100.00;101139.00;2611234;36;20167;-59
2022/10/14 08:02:57;;;;;;;26.63;11.32;;;;;;;14.22;100.00;101148.28;2612184;36;20034;-59
2022/10/14 08:05:25;;;;;;;23.80;12.35;;;;;;;13.92;100.00;101146.78;2611691;36;20035;-59
2022/10/14 08:07:53;;;;;;;25.05;11.95;;;;;;;14.04;100.00;101136.59;2611660;31;20126;-59
2022/10/14 08:10:22;;;;;;;24.65;12.20;;;;;;;13.96;100.00;101134.66;2611736;31;20038;-59
2022/10/14 08:12:50;;;;;;;22.45;10.68;;;;;;;14.06;100.00;101131.88;2611425;36;20069;-59
2022/10/14 08:15:21;;;;;;;22.00;10.98;;;;;;;14.14;100.00;101130.09;2611891;36;20458;-58
2022/10/14 08:17:50;;;;;;;23.80;11.18;;;;;;;14.41;100.00;101130.19;2612501;36;20022;-59
2022/10/14 08:20:18;;;;;;;24.05;11.35;;;;;;;14.45;100.00;101131.59;2611510;36;20630;-58
2022/10/14 08:22:47;;;;;;;21.65;11.40;;;;;;;14.52;100.00;101127.28;2610918;36;20030;-58
2022/10/14 08:25:15;;;;;;;18.98;11.30;;;;;;;14.55;100.00;101135.09;2610890;36;20038;-58
2022/10/14 08:27:44;;;;;;;19.23;9.67;;;;;;;14.59;100.00;101132.91;2614378;36;20027;-59
2022/10/14 08:30:13;;;;;;;16.60;9.37;;;;;;;14.61;100.00;101131.78;2613012;31;20065;-59
2022/10/14 08:32:44;;;;;;;16.98;9.48;;;;;;;14.79;100.00;101128.19;2612063;36;20046;-59
2022/10/14 08:35:13;;;;;;;17.55;8.82;;;;;;;14.63;100.00;101132.47;2614441;36;20566;-58
2022/10/14 08:37:42;;;;;;;14.63;8.60;;;;;;;14.63;100.00;101127.03;2614132;36;20574;-58
2022/10/14 08:40:16;;;;;;;14.57;8.27;;;;;;;14.63;100.00;101134.31;2611573;36;20721;-58
2022/10/14 08:42:52;;;;;;;15.90;9.05;;;;;;;14.83;100.00;101135.00;2613020;31;20061;-59
2022/10/14 08:45:28;;;;;;;16.27;8.35;;;;;;;15.01;100.00;101124.97;2613973;36;20041;-59
2022/10/14 08:48:02;;;;;;;15.38;9.18;;;;;;;15.06;100.00;101121.78;2615443;36;20030;-57
2022/10/14 08:50:35;;;;;;;13.52;7.78;;;;;;;14.97;100.00;101115.47;2614158;31;20431;-57
2022/10/14 08:53:10;;;;;;;15.15;8.57;;;;;;;14.89;100.00;101121.66;2614958;36;20037;-58
2022/10/14 08:55:43;;;;;;;14.60;8.30;;;;;;;14.79;100.00;101120.06;2612925;36;20022;-57
2022/10/14 08:58:16;;;;;;;14.38;8.55;;;;;;;14.82;100.00;101117.88;2614931;36;20030;-58
2022/10/14 09:00:47;;;;;;;14.20;7.70;;;;;;;14.95;100.00;101117.47;2614562;36;20034;-57
2022/10/14 09:03:23;;;;;;;15.25;8.75;;;;;;;15.01;100.00;101111.41;2614487;36;20058;-57
2022/10/14 09:06:00;;;;;;;13.25;8.15;;;;;;;15.03;100.00;101113.97;2613358;36;20030;-58
2022/10/14 09:08:34;;;;;;;14.80;7.88;;;;;;;14.92;100.00;101117.78;2611210;36;20556;-58
2022/10/14 09:11:03;;;;;;;14.07;8.38;;;;;;;15.04;100.00;101108.38;2612160;36;20561;-57
2022/10/14 09:13:37;;;;;;;11.52;7.32;;;;;;;15.27;100.00;101115.13;2616186;36;20146;-57
2022/10/14 09:16:10;;;;;;;14.02;8.23;;;;;;;15.51;100.00;101111.72;2616205;36;20089;-57
2022/10/14 09:18:45;;;;;;;15.13;8.52;;;;;;;15.52;100.00;101100.69;2616089;36;20551;-58
2022/10/14 09:21:26;;;;;;;13.65;8.25;;;;;;;15.47;100.00;101104.91;2615916;36;20030;-58
2022/10/14 09:24:00;;;;;;;13.10;7.45;;;;;;;15.49;100.00;101098.31;2614061;36;21536;-58
2022/10/14 09:26:40;;;;;;;13.80;7.22;;;;;;;15.53;100.00;101101.53;2613404;36;20030;-58
2022/10/14 09:29:22;;;;;;;12.52;7.45;;;;;;;15.54;100.00;101089.69;2614670;36;20034;-59
2022/10/14 09:31:50;;;;;;;12.40;7.80;;;;;;;15.51;100.00;101090.00;2614235;36;20042;-58
2022/10/14 09:34:30;;;;;;;12.93;7.70;;;;;;;15.70;100.00;101099.75;2615292;36;20031;-57
2022/10/14 09:37:02;;;;;;;14.77;8.07;;;;;;;15.72;100.00;101101.28;2615627;36;20712;-58
2022/10/14 09:39:31;;;;;;;14.13;7.38;;;;;;;15.75;100.00;101097.38;2615342;31;20034;-57
2022/10/14 09:42:01;;;;;;;13.70;7.50;;;;;;;15.92;100.00;101103.75;2613881;36;20023;-58
2022/10/14 09:44:29;;;;;;;12.73;7.55;;;;;;;15.80;100.00;101088.78;2633089;31;20038;-58
2022/10/14 09:46:59;;;;;;;12.02;8.13;;;;;;;16.08;100.00;101082.06;2615452;36;20057;-58
2022/10/14 09:49:39;;;;;;;13.07;8.00;;;;;;;16.13;100.00;101078.00;2615634;36;20057;-58
2022/10/14 09:52:07;;;;;;;;;;;;;;;16.41;100.00;101086.69;2614272;36;20038;-59
2022/10/14 09:54:36;;;;;;;12.00;8.25;;;;;;;16.26;100.00;101081.09;2615664;36;19947;-58
2022/10/14 09:57:07;;;;;;;13.93;8.90;;;;;;;16.43;100.00;101074.66;2615146;36;20558;-58
2022/10/14 09:59:42;;;;;;;14.73;9.73;;;;;;;16.75;100.00;101072.91;2614468;36;20038;-58
2022/10/14 10:02:23;;;;;;;13.73;8.93;;;;;;;16.69;100.00;101072.75;2613437;36;20042;-58
2022/10/14 10:04:56;;;;;;;12.23;8.25;;;;;;;16.88;100.00;101066.16;2615314;36;20038;-59
2022/10/14 10:07:32;;;;;;;12.65;8.15;;;;;;;16.97;100.00;101065.09;2614123;36;20563;-59
2022/10/14 10:10:04;;;;;;;12.23;8.13;;;;;;;17.01;100.00;101065.63;2613396;36;20023;-58
2022/10/14 10:12:34;;;;;;;11.63;7.90;;;;;;;17.12;100.00;101057.06;2613763;36;20550;-59
2022/10/14 10:15:05;;;;;;;10.27;7.45;;;;;;;17.01;100.00;101057.47;2614658;36;20027;-59
2022/10/14 10:17:37;;;;;;;11.45;7.68;;;;;;;16.97;100.00;101054.22;2615578;36;20035;-59
2022/10/14 10:20:27;;;;;;;10.15;7.28;;;;;;;16.74;100.00;101054.94;2614712;36;20031;-59
2022/10/14 10:22:56;;;;;;;11.43;6.93;;;;;;;16.70;100.00;101055.44;2614562;31;20608;-58
2022/10/14 10:25:27;;;;;;;11.05;6.88;;;;;;;16.78;100.00;101055.41;2611881;36;20031;-59
2022/10/14 10:27:59;;;;;;;11.27;7.40;;;;;;;16.76;100.00;101041.16;2611842;36;20029;-58
2022/10/14 10:30:31;;;;;;;13.57;7.45;;;;;;;16.73;100.00;101047.78;2611957;36;20026;-59
2022/10/14 10:33:19;;;;;;;11.77;7.65;;;;;;;16.82;100.00;101044.03;2612940;36;20511;-58
2022/10/14 10:36:17;;;;;;;12.18;8.10;;;;;;;16.42;100.00;101045.78;2614162;36;20038;-58
2022/10/14 10:38:53;;;;;;;14.35;9.90;;;;;;;16.64;100.00;101038.78;2615397;36;20034;-59
2022/10/14 10:41:37;;;;;;;12.77;8.55;;;;;;;16.64;100.00;101037.97;2616719;31;20420;-58
2022/10/14 10:44:21;;;;;;;13.95;8.25;;;;;;;16.55;100.00;101055.25;2613091;36;20038;-58
2022/10/14 10:47:23;;;;;;;13.02;8.52;;;;;;;16.61;100.00;101038.31;2614958;36;20023;-58
2022/10/14 10:50:09;;;;;;;13.70;8.70;;;;;;;16.61;100.00;101036.41;2614890;36;20035;-58
2022/10/14 10:52:55;;;;;;;14.00;8.90;;;;;;;16.67;100.00;101036.78;2614068;36;20034;-58
2022/10/14 10:55:31;;;;;;;17.50;9.05;;;;;;;16.53;100.00;101032.88;2614858;36;20426;-58
2022/10/14 10:58:10;;;;;;;14.68;9.63;;;;;;;16.22;100.00;101036.25;2614562;36;20022;-58
2022/10/14 11:00:49;;;;;;;13.82;9.77;;;;;;;16.53;100.00;101030.16;2611395;36;20027;-58
2022/10/14 11:03:37;;;;;;;14.43;9.57;;;;;;;16.42;100.00;101023.19;2610715;36;20137;-58
2022/10/14 11:12:01;;;;;;;18.02;10.35;;;;;;;16.59;100.00;101021.31;2611976;36;20041;-58
2022/10/14 11:12:09;;;;;;;16.65;10.75;;;;;;;16.62;100.00;101007.38;2614790;36;20038;-58
2022/10/14 11:14:50;;;;;;;15.82;10.70;;;;;;;16.48;100.00;101000.78;2615017;36;20038;-58
2022/10/14 11:17:24;;;;;;;18.50;11.23;;;;;;;16.54;100.00;101015.56;2615489;36;20065;-58
2022/10/14 11:19:57;;;;;;;16.15;10.63;;;;;;;16.58;100.00;101006.88;2615355;36;20044;-58
2022/10/14 11:22:44;;;;;;;16.55;11.18;;;;;;;16.57;100.00;100998.91;2614639;36;20042;-58
2022/10/14 11:25:24;;;;;;;17.95;10.73;;;;;;;16.64;100.00;100991.75;2615605;36;20029;-57
2022/10/14 11:28:01;;;;;;;17.80;10.20;;;;;;;16.60;100.00;101001.28;2615846;36;20034;-58